Time;durP1;ratioP1;P1;durP2;ratioP2;P2;SDS_P1;SDS_P2;PMS_P1;PMS_P2;Temp;Humidity;BMP_temperature;BMP_pressure;BME280_temperature;BME280_humidity;BME280_pressure;Samples;Min_cycle;Max_cycle;Signal;HPM_P1;HPM_P2
2022/06/22 00:02:03;;;;;;;0.50;0.28;;;;;;;;;;5006105;28;20030;-76
2022/06/22 00:04:41;;;;;;;1.65;0.57;;;;;;;;;;5011150;28;20045;-76
2022/06/22 00:07:12;;;;;;;0.10;0.10;;;;;;;;;;4998757;28;20173;-75
2022/06/22 00:09:40;;;;;;;0.35;0.20;;;;;;;;;;5015596;28;20029;-76
2022/06/22 00:12:17;;;;;;;0.20;0.20;;;;;;;;;;5015864;28;20462;-76
2022/06/22 00:14:46;;;;;;;0.10;0.10;;;;;;;;;;5015894;28;20030;-75
2022/06/22 00:17:39;;;;;;;0.25;0.25;;;;;;;;;;5015615;28;20113;-75
2022/06/22 00:20:25;;;;;;;0.40;0.40;;;;;;;;;;5015434;28;20124;-75
2022/06/22 00:22:56;;;;;;;0.63;0.40;;;;;;;;;;5015816;28;20037;-76
2022/06/22 00:25:32;;;;;;;0.40;0.32;;;;;;;;;;5016246;28;20033;-75
2022/06/22 00:28:30;;;;;;;1.05;0.57;;;;;;;;;;5016732;28;20487;-75
2022/06/22 00:31:02;;;;;;;0.20;0.20;;;;;;;;;;5000800;28;20021;-76
2022/06/22 00:33:28;;;;;;;;;;;;;;;;;;5015837;28;20460;-75
2022/06/22 00:36:12;;;;;;;0.10;0.10;;;;;;;;;;5016339;28;19948;-76
2022/06/22 00:38:37;;;;;;;2.47;0.45;;;;;;;;;;5014108;28;20041;-76
2022/06/22 00:41:15;;;;;;;0.40;0.40;;;;;;;;;;5012373;28;20018;-75
2022/06/22 00:43:40;;;;;;;0.30;0.30;;;;;;;;;;5018989;28;20025;-76
2022/06/22 00:46:14;;;;;;;0.03;0.03;;;;;;;;;;5025636;28;20022;-75
2022/06/22 00:48:40;;;;;;;0.20;0.20;;;;;;;;;;5000722;28;20575;-75
2022/06/22 00:51:13;;;;;;;0.00;0.00;;;;;;;;;;5012073;28;20110;-75
2022/06/22 00:53:41;;;;;;;0.20;0.20;;;;;;;;;;5012367;28;20030;-75
2022/06/22 00:56:23;;;;;;;0.10;0.10;;;;;;;;;;5010057;28;20085;-75
2022/06/22 00:59:14;;;;;;;0.32;0.20;;;;;;;;;;5011282;28;20049;-74
2022/06/22 01:01:46;;;;;;;1.23;0.40;;;;;;;;;;4998249;28;20480;-75
2022/06/22 01:04:14;;;;;;;0.25;0.22;;;;;;;;;;5014293;28;20092;-75
2022/06/22 01:06:46;;;;;;;0.22;0.20;;;;;;;;;;5011864;28;20037;-75
2022/06/22 01:09:12;;;;;;;0.47;0.30;;;;;;;;;;5011024;28;20038;-74
2022/06/22 01:14:36;;;;;;;0.30;0.30;;;;;;;;;;5010844;28;20076;-75
2022/06/22 01:17:09;;;;;;;0.10;0.10;;;;;;;;;;5012833;28;20057;-75
2022/06/22 01:20:01;;;;;;;0.05;0.05;;;;;;;;;;4992983;28;20325;-75
2022/06/22 01:22:59;;;;;;;0.00;0.00;;;;;;;;;;5009065;28;20030;-75
2022/06/22 01:25:45;;;;;;;0.52;0.30;;;;;;;;;;5008205;28;20454;-76
2022/06/22 01:28:14;;;;;;;0.35;0.30;;;;;;;;;;5011402;28;20059;-76
2022/06/22 01:30:43;;;;;;;1.33;0.40;;;;;;;;;;5012998;28;20112;-76
2022/06/22 01:33:14;;;;;;;0.43;0.43;;;;;;;;;;5013233;28;20026;-76
2022/06/22 01:35:39;;;;;;;0.28;0.22;;;;;;;;;;5009315;28;20029;-75
2022/06/22 01:38:26;;;;;;;0.57;0.52;;;;;;;;;;5007435;28;20091;-74
2022/06/22 01:41:30;;;;;;;0.60;0.60;;;;;;;;;;5008861;28;20358;-75
2022/06/22 01:44:01;;;;;;;1.75;0.68;;;;;;;;;;5001672;28;20406;-75
2022/06/22 01:46:50;;;;;;;4.57;0.40;;;;;;;;;;5009419;28;20170;-77
2022/06/22 01:49:40;;;;;;;0.25;0.25;;;;;;;;;;5010029;28;20450;-76
2022/06/22 01:52:15;;;;;;;0.20;0.20;;;;;;;;;;4995048;28;20442;-75
2022/06/22 01:54:48;;;;;;;1.52;0.95;;;;;;;;;;5011494;28;20068;-75
2022/06/22 01:57:23;;;;;;;0.15;0.15;;;;;;;;;;4991484;28;20084;-75
2022/06/22 01:59:59;;;;;;;0.35;0.35;;;;;;;;;;4991167;28;20459;-75
2022/06/22 02:02:56;;;;;;;0.10;0.10;;;;;;;;;;5011380;28;20481;-75
2022/06/22 02:05:33;;;;;;;0.57;0.30;;;;;;;;;;5011639;28;20034;-75
2022/06/22 02:08:23;;;;;;;0.50;0.45;;;;;;;;;;5013022;28;20100;-76
2022/06/22 02:10:59;;;;;;;0.17;0.17;;;;;;;;;;5011107;28;20088;-75
2022/06/22 02:13:59;;;;;;;0.22;0.20;;;;;;;;;;5006866;28;20021;-76
2022/06/22 02:16:29;;;;;;;0.15;0.15;;;;;;;;;;5008101;28;20053;-76
2022/06/22 02:18:58;;;;;;;0.40;0.40;;;;;;;;;;5013270;28;20032;-75
2022/06/22 02:21:23;;;;;;;0.40;0.40;;;;;;;;;;5012788;28;20148;-76
2022/06/22 02:23:57;;;;;;;0.30;0.20;;;;;;;;;;5012726;28;20057;-76
2022/06/22 02:26:45;;;;;;;0.15;0.10;;;;;;;;;;5012291;28;20072;-76
2022/06/22 02:29:13;;;;;;;0.65;0.43;;;;;;;;;;5012956;28;20026;-76
2022/06/22 02:31:41;;;;;;;0.15;0.13;;;;;;;;;;5002833;28;20370;-76
2022/06/22 02:34:09;;;;;;;0.40;0.40;;;;;;;;;;5013175;28;20022;-76
2022/06/22 02:36:39;;;;;;;0.30;0.25;;;;;;;;;;5014720;28;20026;-76
2022/06/22 02:39:05;;;;;;;0.30;0.30;;;;;;;;;;5013700;28;20402;-76
2022/06/22 02:44:29;;;;;;;0.20;0.20;;;;;;;;;;5001188;28;20041;-75
2022/06/22 02:46:57;;;;;;;0.08;0.08;;;;;;;;;;5013316;28;20030;-76
2022/06/22 02:49:31;;;;;;;0.32;0.10;;;;;;;;;;5015983;28;20038;-76
2022/06/22 02:52:03;;;;;;;0.10;0.10;;;;;;;;;;5016082;28;20041;-75
2022/06/22 02:54:32;;;;;;;0.15;0.15;;;;;;;;;;5000583;28;20295;-75
2022/06/22 02:57:04;;;;;;;0.30;0.25;;;;;;;;;;5013602;28;20117;-75
2022/06/22 02:59:32;;;;;;;0.73;0.57;;;;;;;;;;5013659;28;20087;-75
2022/06/22 03:01:58;;;;;;;0.30;0.30;;;;;;;;;;5011435;28;20042;-75
2022/06/22 03:04:25;;;;;;;0.40;0.40;;;;;;;;;;5004415;28;20041;-75
2022/06/22 03:06:55;;;;;;;1.35;0.20;;;;;;;;;;5009987;28;20025;-75
2022/06/22 03:09:20;;;;;;;0.10;0.10;;;;;;;;;;5016373;28;20030;-76
2022/06/22 03:11:50;;;;;;;1.63;1.10;;;;;;;;;;4996638;28;20056;-76
2022/06/22 03:14:22;;;;;;;0.43;0.30;;;;;;;;;;5004075;28;20039;-76
2022/06/22 03:16:53;;;;;;;0.40;0.38;;;;;;;;;;5013981;28;20026;-75
2022/06/22 03:19:53;;;;;;;0.20;0.20;;;;;;;;;;5014981;28;20042;-75
2022/06/22 03:22:23;;;;;;;0.17;0.17;;;;;;;;;;5015740;28;20103;-75
2022/06/22 03:24:57;;;;;;;0.28;0.28;;;;;;;;;;5003795;28;20110;-75
2022/06/22 03:27:28;;;;;;;0.47;0.40;;;;;;;;;;5006608;28;20026;-76
2022/06/22 03:30:01;;;;;;;1.08;0.50;;;;;;;;;;5013395;28;20040;-76
2022/06/22 03:32:43;;;;;;;0.43;0.43;;;;;;;;;;5017867;28;20022;-75
2022/06/22 03:35:12;;;;;;;0.40;0.40;;;;;;;;;;5015148;28;20029;-76
2022/06/22 03:37:43;;;;;;;0.20;0.20;;;;;;;;;;5013305;28;20351;-76
2022/06/22 03:40:15;;;;;;;0.20;0.20;;;;;;;;;;5016821;28;20030;-75
2022/06/22 03:42:57;;;;;;;0.30;0.30;;;;;;;;;;4997925;28;20050;-75
2022/06/22 03:45:35;;;;;;;0.57;0.20;;;;;;;;;;5012405;28;20037;-76
2022/06/22 03:48:02;;;;;;;0.35;0.35;;;;;;;;;;5014820;28;20056;-76
2022/06/22 03:50:49;;;;;;;0.55;0.55;;;;;;;;;;5015305;28;20117;-76
2022/06/22 03:53:17;;;;;;;0.25;0.20;;;;;;;;;;5016377;28;20022;-75
2022/06/22 03:55:47;;;;;;;0.47;0.22;;;;;;;;;;5015353;28;20188;-75
2022/06/22 03:58:13;;;;;;;0.10;0.10;;;;;;;;;;5013461;28;20506;-76
2022/06/22 04:00:40;;;;;;;0.55;0.55;;;;;;;;;;5014715;28;20089;-76
2022/06/22 04:03:07;;;;;;;1.33;0.25;;;;;;;;;;5013930;28;20034;-75
2022/06/22 04:05:43;;;;;;;4.47;1.08;;;;;;;;;;5005621;28;20031;-75
2022/06/22 04:08:22;;;;;;;0.28;0.20;;;;;;;;;;5008592;28;20034;-76
2022/06/22 04:11:24;;;;;;;0.20;0.20;;;;;;;;;;5016766;28;20029;-76
2022/06/22 04:13:55;;;;;;;0.20;0.20;;;;;;;;;;5015300;28;20050;-75
2022/06/22 04:16:52;;;;;;;0.28;0.28;;;;;;;;;;5014339;28;20064;-76
2022/06/22 04:19:22;;;;;;;1.45;0.38;;;;;;;;;;5006746;28;20112;-76
2022/06/22 04:21:54;;;;;;;0.93;0.63;;;;;;;;;;5015028;28;20022;-75
2022/06/22 04:24:25;;;;;;;;;;;;;;;;;;5012418;28;20448;-75
2022/06/22 04:27:20;;;;;;;0.08;0.08;;;;;;;;;;4997784;28;20457;-77
2022/06/22 04:29:49;;;;;;;0.40;0.40;;;;;;;;;;5012021;28;20038;-76
2022/06/22 04:32:20;;;;;;;0.90;0.60;;;;;;;;;;5012767;28;20103;-76
2022/06/22 04:35:07;;;;;;;0.43;0.43;;;;;;;;;;5001369;28;20030;-76
2022/06/22 04:37:57;;;;;;;0.38;0.38;;;;;;;;;;5001355;28;20416;-76
2022/06/22 04:40:30;;;;;;;2.08;0.40;;;;;;;;;;5013208;28;20374;-76
2022/06/22 04:42:59;;;;;;;0.17;0.17;;;;;;;;;;5014426;28;20434;-76
2022/06/22 04:45:34;;;;;;;3.63;1.42;;;;;;;;;;5014528;28;20040;-76
2022/06/22 04:48:06;;;;;;;0.40;0.40;;;;;;;;;;4998272;28;20033;-76
2022/06/22 04:50:34;;;;;;;;;;;;;;;;;;5015299;28;20091;-76
2022/06/22 04:53:02;;;;;;;0.20;0.20;;;;;;;;;;4996668;28;19928;-76
2022/06/22 04:55:29;;;;;;;0.75;0.60;;;;;;;;;;5012919;28;20050;-76
2022/06/22 04:58:01;;;;;;;2.17;0.40;;;;;;;;;;5011663;28;20034;-76
2022/06/22 05:00:30;;;;;;;0.55;0.45;;;;;;;;;;5012863;28;20587;-76
2022/06/22 05:03:07;;;;;;;1.27;0.85;;;;;;;;;;5013838;28;20086;-76
2022/06/22 05:05:34;;;;;;;0.30;0.30;;;;;;;;;;4997220;28;20412;-74
2022/06/22 05:07:59;;;;;;;0.52;0.43;;;;;;;;;;5013843;28;20048;-74
2022/06/22 05:10:40;;;;;;;2.03;0.95;;;;;;;;;;5014348;28;20101;-74
2022/06/22 05:13:13;;;;;;;0.10;0.10;;;;;;;;;;5014413;28;20038;-75
2022/06/22 05:15:39;;;;;;;0.88;0.70;;;;;;;;;;5013463;28;20058;-75
2022/06/22 05:18:10;;;;;;;1.00;0.75;;;;;;;;;;5014880;28;20030;-75
2022/06/22 05:20:49;;;;;;;0.32;0.32;;;;;;;;;;5014133;28;20101;-74
2022/06/22 05:23:17;;;;;;;0.77;0.60;;;;;;;;;;5012325;28;20052;-75
2022/06/22 05:25:43;;;;;;;0.52;0.40;;;;;;;;;;5014987;28;20033;-75
2022/06/22 05:28:16;;;;;;;0.38;0.38;;;;;;;;;;5015057;28;20538;-74
2022/06/22 05:30:52;;;;;;;0.77;0.73;;;;;;;;;;5014732;28;20029;-74
2022/06/22 05:33:21;;;;;;;0.50;0.50;;;;;;;;;;5014011;28;20060;-76
2022/06/22 05:35:58;;;;;;;1.13;0.93;;;;;;;;;;5013996;28;20160;-76
2022/06/22 05:38:27;;;;;;;0.68;0.50;;;;;;;;;;5014679;28;20529;-76
2022/06/22 05:40:53;;;;;;;0.95;0.52;;;;;;;;;;5014559;28;20489;-76
2022/06/22 05:43:19;;;;;;;0.52;0.52;;;;;;;;;;5012634;28;20041;-76
2022/06/22 05:45:47;;;;;;;0.20;0.20;;;;;;;;;;4994693;28;20022;-76
2022/06/22 05:48:26;;;;;;;1.02;0.73;;;;;;;;;;5029665;28;20056;-76
2022/06/22 05:50:54;;;;;;;1.50;0.60;;;;;;;;;;5014211;28;20365;-76
2022/06/22 05:53:22;;;;;;;0.85;0.73;;;;;;;;;;5019908;28;20105;-75
2022/06/22 05:56:03;;;;;;;0.47;0.47;;;;;;;;;;5014930;28;20041;-76
2022/06/22 05:58:52;;;;;;;4.68;1.60;;;;;;;;;;4999325;28;20034;-76
2022/06/22 06:01:23;;;;;;;0.75;0.75;;;;;;;;;;5010524;28;20038;-76
2022/06/22 06:04:29;;;;;;;0.47;0.47;;;;;;;;;;5013493;28;20036;-76
2022/06/22 06:07:02;;;;;;;0.32;0.32;;;;;;;;;;4999779;28;20041;-76
2022/06/22 06:09:28;;;;;;;7.85;1.00;;;;;;;;;;5011713;28;20021;-76
2022/06/22 06:12:08;;;;;;;1.10;0.95;;;;;;;;;;5014035;28;20021;-74
2022/06/22 06:14:39;;;;;;;4.00;0.55;;;;;;;;;;5026680;28;20032;-74
2022/06/22 06:17:13;;;;;;;0.55;0.55;;;;;;;;;;5013770;28;20434;-74
2022/06/22 06:19:41;;;;;;;0.65;0.50;;;;;;;;;;5012775;28;20096;-74
2022/06/22 06:22:07;;;;;;;0.73;0.50;;;;;;;;;;5002707;28;20042;-76
2022/06/22 06:27:44;;;;;;;1.30;1.15;;;;;;;;;;5014077;28;20100;-76
2022/06/22 06:30:15;;;;;;;0.77;0.77;;;;;;;;;;5012723;28;20030;-75
2022/06/22 06:33:18;;;;;;;0.67;0.67;;;;;;;;;;5013020;28;20537;-76
2022/06/22 06:36:05;;;;;;;0.50;0.40;;;;;;;;;;5010399;28;20040;-76
2022/06/22 06:38:34;;;;;;;1.05;0.93;;;;;;;;;;5008967;28;20470;-76
2022/06/22 06:41:15;;;;;;;0.40;0.40;;;;;;;;;;5013688;28;20053;-74
2022/06/22 06:43:57;;;;;;;0.55;0.55;;;;;;;;;;5014055;28;20026;-73
2022/06/22 06:46:29;;;;;;;;;;;;;;;;;;5013516;28;20048;-74
2022/06/22 06:49:05;;;;;;;0.70;0.43;;;;;;;;;;5012879;28;19925;-74
2022/06/22 06:51:32;;;;;;;0.43;0.43;;;;;;;;;;5012953;28;20046;-75
2022/06/22 06:54:03;;;;;;;0.43;0.35;;;;;;;;;;5023138;28;20021;-75
2022/06/22 06:56:34;;;;;;;1.08;0.85;;;;;;;;;;5013500;28;20446;-75
2022/06/22 06:59:04;;;;;;;0.28;0.28;;;;;;;;;;5008497;28;20049;-74
2022/06/22 07:01:35;;;;;;;0.30;0.25;;;;;;;;;;5012533;28;20359;-75
2022/06/22 07:04:07;;;;;;;0.95;0.65;;;;;;;;;;4995147;28;20029;-76
2022/06/22 07:06:33;;;;;;;0.85;0.40;;;;;;;;;;5017137;28;20036;-75
2022/06/22 07:09:03;;;;;;;1.00;0.75;;;;;;;;;;5013413;28;20034;-75
2022/06/22 07:11:32;;;;;;;3.15;0.98;;;;;;;;;;5028603;28;20105;-75
2022/06/22 07:14:19;;;;;;;10.30;0.43;;;;;;;;;;5017557;28;20044;-75
2022/06/22 07:16:47;;;;;;;1.90;0.38;;;;;;;;;;5012971;28;20030;-75
2022/06/22 07:19:18;;;;;;;1.45;0.73;;;;;;;;;;5010333;28;20040;-75
2022/06/22 07:21:50;;;;;;;0.87;0.63;;;;;;;;;;5013218;28;20107;-76
2022/06/22 07:24:21;;;;;;;1.00;0.70;;;;;;;;;;5013813;28;20385;-76
2022/06/22 07:27:00;;;;;;;0.50;0.45;;;;;;;;;;5013205;28;20045;-76
2022/06/22 07:29:28;;;;;;;1.45;0.43;;;;;;;;;;5006212;28;20400;-76
2022/06/22 07:32:12;;;;;;;1.30;0.85;;;;;;;;;;5007489;28;20029;-76
2022/06/22 07:34:44;;;;;;;1.48;0.98;;;;;;;;;;5014802;28;20033;-76
2022/06/22 07:37:15;;;;;;;0.32;0.32;;;;;;;;;;5015670;28;20034;-76
2022/06/22 07:39:47;;;;;;;1.70;1.02;;;;;;;;;;5010126;28;20069;-76
2022/06/22 07:42:13;;;;;;;0.73;0.63;;;;;;;;;;5008359;28;20025;-75
2022/06/22 07:44:39;;;;;;;1.92;0.70;;;;;;;;;;5015790;28;20018;-76
2022/06/22 07:47:33;;;;;;;0.25;0.25;;;;;;;;;;4994984;28;20029;-76
2022/06/22 07:50:05;;;;;;;2.15;0.50;;;;;;;;;;5013660;28;20022;-77
2022/06/22 07:52:39;;;;;;;0.75;0.65;;;;;;;;;;5015983;28;20036;-75
2022/06/22 07:55:16;;;;;;;0.20;0.20;;;;;;;;;;5016874;28;20022;-75
2022/06/22 07:57:52;;;;;;;0.40;0.40;;;;;;;;;;5013635;28;20064;-74
2022/06/22 08:00:20;;;;;;;0.40;0.40;;;;;;;;;;5012327;28;20029;-75
2022/06/22 08:02:54;;;;;;;0.30;0.30;;;;;;;;;;5014735;28;20474;-75
2022/06/22 08:05:24;;;;;;;0.63;0.63;;;;;;;;;;5012235;28;20443;-75
2022/06/22 08:07:53;;;;;;;4.63;1.13;;;;;;;;;;5009485;28;20030;-73
2022/06/22 08:10:30;;;;;;;0.40;0.40;;;;;;;;;;5030843;28;20509;-75
2022/06/22 08:13:11;;;;;;;1.20;0.50;;;;;;;;;;5014519;28;20041;-75
2022/06/22 08:15:44;;;;;;;;;;;;;;;;;;5014257;28;20034;-76
2022/06/22 08:18:12;;;;;;;1.00;0.70;;;;;;;;;;5015633;28;19949;-77
2022/06/22 08:20:42;;;;;;;1.52;0.85;;;;;;;;;;5013328;28;20028;-76
2022/06/22 08:23:22;;;;;;;2.25;1.10;;;;;;;;;;5010804;28;20041;-77
2022/06/22 08:25:49;;;;;;;0.80;0.80;;;;;;;;;;5011378;28;20083;-76
2022/06/22 08:28:17;;;;;;;0.55;0.45;;;;;;;;;;5014245;28;20029;-76
2022/06/22 08:30:45;;;;;;;0.52;0.52;;;;;;;;;;5013822;28;20083;-76
2022/06/22 08:33:23;;;;;;;0.98;0.70;;;;;;;;;;5014685;28;20347;-76
2022/06/22 08:35:52;;;;;;;0.50;0.45;;;;;;;;;;5008563;28;20132;-76
2022/06/22 08:38:37;;;;;;;0.47;0.47;;;;;;;;;;5010105;28;20124;-76
2022/06/22 08:41:20;;;;;;;0.50;0.50;;;;;;;;;;5006074;28;20037;-76
2022/06/22 08:44:22;;;;;;;0.65;0.65;;;;;;;;;;5006404;28;20091;-76
2022/06/22 08:47:05;;;;;;;0.95;0.85;;;;;;;;;;5015117;28;20026;-76
2022/06/22 08:50:15;;;;;;;0.80;0.73;;;;;;;;;;5013108;28;20053;-76
2022/06/22 08:52:58;;;;;;;1.20;0.38;;;;;;;;;;5003363;28;20042;-77
2022/06/22 08:55:32;;;;;;;1.33;1.13;;;;;;;;;;5014075;28;20343;-76
2022/06/22 08:58:00;;;;;;;0.32;0.32;;;;;;;;;;5016702;28;20125;-76
2022/06/22 09:00:49;;;;;;;1.33;0.77;;;;;;;;;;5014302;28;20057;-76
2022/06/22 09:03:43;;;;;;;0.40;0.35;;;;;;;;;;5014237;28;20080;-76
2022/06/22 09:06:41;;;;;;;0.98;0.90;;;;;;;;;;5011529;28;20029;-75
2022/06/22 09:09:30;;;;;;;1.15;0.77;;;;;;;;;;5005951;28;20049;-76
2022/06/22 09:12:06;;;;;;;0.20;0.20;;;;;;;;;;5012299;28;20054;-76
2022/06/22 09:14:55;;;;;;;1.10;1.00;;;;;;;;;;5013622;28;20030;-76
2022/06/22 09:17:32;;;;;;;0.57;0.40;;;;;;;;;;5014596;28;20034;-76
2022/06/22 09:20:12;;;;;;;0.35;0.35;;;;;;;;;;5015244;28;20038;-76
2022/06/22 09:22:40;;;;;;;2.53;0.68;;;;;;;;;;5012652;28;20061;-76
2022/06/22 09:25:17;;;;;;;0.55;0.47;;;;;;;;;;5014273;28;20022;-76
2022/06/22 09:27:45;;;;;;;3.50;0.45;;;;;;;;;;5013441;28;20367;-75
2022/06/22 09:30:12;;;;;;;0.50;0.50;;;;;;;;;;5026530;28;20025;-75
2022/06/22 09:32:50;;;;;;;1.27;0.77;;;;;;;;;;5014159;28;20034;-76
2022/06/22 09:35:33;;;;;;;1.00;0.60;;;;;;;;;;5015409;28;20026;-76
2022/06/22 09:38:26;;;;;;;0.70;0.40;;;;;;;;;;5015084;28;20038;-77
2022/06/22 09:41:03;;;;;;;0.30;0.30;;;;;;;;;;5009612;28;20033;-76
2022/06/22 09:43:44;;;;;;;1.63;0.68;;;;;;;;;;5025547;28;20022;-76
2022/06/22 09:46:25;;;;;;;0.23;0.23;;;;;;;;;;5005391;28;20026;-77
2022/06/22 09:49:21;;;;;;;1.40;0.30;;;;;;;;;;5007862;28;20037;-76
2022/06/22 09:52:01;;;;;;;3.38;0.60;;;;;;;;;;5011524;28;20026;-76
2022/06/22 09:57:25;;;;;;;0.40;0.40;;;;;;;;;;5013200;28;20068;-76
2022/06/22 10:00:23;;;;;;;0.65;0.47;;;;;;;;;;5013629;28;20049;-76
2022/06/22 10:03:06;;;;;;;0.30;0.30;;;;;;;;;;5008474;28;20061;-76
2022/06/22 10:06:16;;;;;;;0.57;0.43;;;;;;;;;;5012399;28;20148;-75
2022/06/22 10:09:00;;;;;;;0.30;0.30;;;;;;;;;;5002216;28;20069;-76
2022/06/22 10:11:47;;;;;;;0.98;0.60;;;;;;;;;;5009672;28;20030;-76
2022/06/22 10:14:37;;;;;;;1.17;0.40;;;;;;;;;;4997499;28;20030;-75
2022/06/22 10:17:12;;;;;;;0.40;0.30;;;;;;;;;;5006486;28;20022;-77
2022/06/22 10:19:47;;;;;;;0.28;0.28;;;;;;;;;;5000682;28;20076;-76
2022/06/22 10:22:34;;;;;;;0.45;0.38;;;;;;;;;;5013386;28;20053;-75
2022/06/22 10:25:28;;;;;;;0.60;0.60;;;;;;;;;;5004950;28;20033;-75
2022/06/22 10:28:23;;;;;;;0.70;0.60;;;;;;;;;;5008365;28;20026;-77
2022/06/22 10:31:00;;;;;;;0.35;0.35;;;;;;;;;;5012494;28;20045;-76
2022/06/22 10:33:27;;;;;;;0.43;0.43;;;;;;;;;;5007237;28;21927;-77
2022/06/22 10:36:25;;;;;;;1.95;0.40;;;;;;;;;;5012269;28;20081;-77
2022/06/22 10:39:05;;;;;;;0.32;0.32;;;;;;;;;;5006833;28;20466;-77
2022/06/22 10:47:32;;;;;;;0.43;0.43;;;;;;;;;;5012178;28;20410;-76
2022/06/22 10:50:13;;;;;;;0.82;0.82;;;;;;;;;;5011588;28;20034;-76
2022/06/22 10:53:05;;;;;;;0.85;0.85;;;;;;;;;;4998063;28;20021;-76
2022/06/22 10:55:56;;;;;;;0.22;0.20;;;;;;;;;;5012910;28;20096;-77
2022/06/22 10:58:56;;;;;;;0.40;0.40;;;;;;;;;;5009235;28;20108;-75
2022/06/22 11:01:52;;;;;;;1.17;0.43;;;;;;;;;;5011501;28;20114;-76
2022/06/22 11:04:50;;;;;;;0.75;0.47;;;;;;;;;;5011712;28;20057;-76
2022/06/22 11:07:53;;;;;;;0.32;0.32;;;;;;;;;;5013561;28;20034;-77
2022/06/22 11:10:47;;;;;;;0.40;0.40;;;;;;;;;;5014097;28;20022;-77
2022/06/22 11:13:37;;;;;;;4.10;0.52;;;;;;;;;;5014062;28;20376;-77
2022/06/22 11:16:08;;;;;;;0.40;0.40;;;;;;;;;;5016252;28;20041;-76
2022/06/22 11:18:47;;;;;;;0.20;0.20;;;;;;;;;;5015435;28;20033;-77
2022/06/22 11:21:30;;;;;;;2.05;0.30;;;;;;;;;;5015984;28;20095;-77
2022/06/22 11:24:12;;;;;;;0.30;0.30;;;;;;;;;;5013334;28;20029;-77
2022/06/22 11:33:27;;;;;;;0.50;0.50;;;;;;;;;;5015756;28;20044;-77
2022/06/22 11:36:18;;;;;;;0.20;0.20;;;;;;;;;;5014867;28;20071;-77
2022/06/22 11:38:46;;;;;;;0.40;0.40;;;;;;;;;;4997771;28;20029;-78
2022/06/22 11:41:43;;;;;;;3.00;0.77;;;;;;;;;;5014219;28;20366;-79
2022/06/22 11:44:30;;;;;;;0.20;0.20;;;;;;;;;;4994372;28;20045;-84
2022/06/22 11:46:57;;;;;;;0.30;0.30;;;;;;;;;;5006008;28;20026;-81
2022/06/22 11:49:37;;;;;;;3.08;0.80;;;;;;;;;;5013997;28;20025;-79
2022/06/22 11:52:08;;;;;;;1.10;0.63;;;;;;;;;;5017190;28;20372;-79
2022/06/22 11:54:55;;;;;;;0.50;0.50;;;;;;;;;;5031767;28;20022;-79
2022/06/22 11:57:23;;;;;;;1.85;1.27;;;;;;;;;;5036760;28;20028;-78
2022/06/22 12:00:04;;;;;;;0.40;0.40;;;;;;;;;;5036804;28;20447;-79
2022/06/22 12:02:38;;;;;;;;;;;;;;;;;;5037074;28;20473;-79
2022/06/22 12:05:21;;;;;;;0.80;0.68;;;;;;;;;;5016006;28;19974;-80
2022/06/22 12:08:16;;;;;;;0.93;0.45;;;;;;;;;;5015728;28;20026;-79
2022/06/22 12:10:58;;;;;;;0.20;0.20;;;;;;;;;;5016317;28;20064;-80
2022/06/22 12:13:33;;;;;;;0.63;0.60;;;;;;;;;;5016962;28;20022;-80
2022/06/22 12:16:25;;;;;;;0.90;0.47;;;;;;;;;;5028453;28;20455;-80
2022/06/22 12:19:08;;;;;;;0.40;0.40;;;;;;;;;;5019174;28;20033;-79
2022/06/22 12:21:58;;;;;;;0.40;0.40;;;;;;;;;;5015970;28;20390;-79
2022/06/22 12:24:40;;;;;;;0.40;0.40;;;;;;;;;;5014492;28;20358;-80
2022/06/22 12:27:26;;;;;;;0.40;0.40;;;;;;;;;;5022432;28;20022;-80
2022/06/22 12:29:55;;;;;;;0.50;0.50;;;;;;;;;;5016592;28;20056;-80
2022/06/22 12:32:22;;;;;;;0.45;0.45;;;;;;;;;;5016056;28;20048;-80
2022/06/22 12:35:04;;;;;;;0.45;0.45;;;;;;;;;;5014579;28;20459;-79
2022/06/22 12:37:57;;;;;;;0.40;0.40;;;;;;;;;;5012766;28;20038;-80
2022/06/22 12:40:43;;;;;;;0.52;0.40;;;;;;;;;;5014613;28;20136;-79
2022/06/22 12:43:42;;;;;;;0.75;0.68;;;;;;;;;;5016350;28;20030;-80
2022/06/22 12:46:48;;;;;;;0.47;0.40;;;;;;;;;;5016493;28;20040;-81
2022/06/22 12:49:28;;;;;;;1.27;0.80;;;;;;;;;;5015342;28;20328;-81
2022/06/22 12:52:09;;;;;;;1.45;0.80;;;;;;;;;;5013590;28;20430;-81
2022/06/22 12:54:39;;;;;;;0.63;0.57;;;;;;;;;;5014301;28;20034;-80
2022/06/22 12:57:20;;;;;;;0.50;0.50;;;;;;;;;;5015082;28;20033;-80
2022/06/22 12:59:49;;;;;;;0.45;0.45;;;;;;;;;;5015416;28;20101;-84
2022/06/22 13:02:17;;;;;;;0.50;0.50;;;;;;;;;;5011676;28;20021;-83
2022/06/22 13:04:45;;;;;;;0.68;0.43;;;;;;;;;;5001196;28;20092;-85
2022/06/22 13:07:16;;;;;;;0.30;0.30;;;;;;;;;;4998723;28;20108;-85
2022/06/22 13:09:44;;;;;;;0.63;0.63;;;;;;;;;;4999072;28;20083;-86
2022/06/22 13:12:20;;;;;;;0.52;0.52;;;;;;;;;;4995588;28;20501;-85
2022/06/22 13:14:59;;;;;;;0.55;0.55;;;;;;;;;;4995183;28;20109;-84
2022/06/22 13:17:30;;;;;;;0.63;0.40;;;;;;;;;;4995451;28;20030;-86
2022/06/22 13:20:33;;;;;;;0.55;0.50;;;;;;;;;;4997006;28;20037;-87
2022/06/22 13:23:04;;;;;;;0.47;0.47;;;;;;;;;;5014407;28;20096;-86
2022/06/22 13:25:35;;;;;;;5.82;0.50;;;;;;;;;;5016610;28;20034;-87
2022/06/22 13:28:37;;;;;;;0.77;0.30;;;;;;;;;;5017038;28;20049;-87
2022/06/22 13:31:19;;;;;;;0.28;0.28;;;;;;;;;;5015089;28;20069;-87
2022/06/22 13:33:50;;;;;;;0.30;0.30;;;;;;;;;;4995920;28;20088;-87
2022/06/22 13:36:28;;;;;;;0.30;0.30;;;;;;;;;;4995195;28;20027;-87
2022/06/22 13:39:12;;;;;;;0.38;0.38;;;;;;;;;;5030731;28;20037;-86
2022/06/22 13:41:44;;;;;;;0.30;0.30;;;;;;;;;;5014702;28;20026;-86
2022/06/22 13:44:32;;;;;;;;;;;;;;;;;;5014776;28;20125;-87
2022/06/22 13:47:22;;;;;;;0.25;0.25;;;;;;;;;;4998459;28;19916;-86
2022/06/22 13:50:26;;;;;;;0.43;0.43;;;;;;;;;;4998375;28;20022;-85
2022/06/22 13:52:57;;;;;;;0.40;0.40;;;;;;;;;;5014171;28;20025;-86
2022/06/22 13:55:49;;;;;;;0.40;0.40;;;;;;;;;;4998376;28;20022;-84
2022/06/22 13:58:18;;;;;;;1.15;0.40;;;;;;;;;;5014327;28;20029;-86
2022/06/22 14:00:43;;;;;;;0.93;0.75;;;;;;;;;;5023472;28;20022;-88
2022/06/22 14:03:18;;;;;;;0.60;0.35;;;;;;;;;;5034100;28;20303;-86
2022/06/22 14:06:18;;;;;;;0.30;0.30;;;;;;;;;;5034020;28;20021;-85
2022/06/22 14:08:46;;;;;;;0.60;0.40;;;;;;;;;;4997466;28;20033;-85
2022/06/22 14:11:32;;;;;;;0.50;0.50;;;;;;;;;;5014004;28;20022;-84
2022/06/22 14:14:02;;;;;;;0.30;0.30;;;;;;;;;;4997774;28;20451;-84
2022/06/22 14:16:40;;;;;;;0.25;0.25;;;;;;;;;;4997680;28;20450;-85
2022/06/22 14:19:16;;;;;;;0.60;0.55;;;;;;;;;;4998253;28;20048;-86
2022/06/22 14:21:55;;;;;;;0.45;0.40;;;;;;;;;;5008404;28;20025;-83
2022/06/22 14:24:34;;;;;;;0.32;0.32;;;;;;;;;;4999364;28;20032;-84
2022/06/22 14:27:18;;;;;;;0.25;0.25;;;;;;;;;;5017240;28;20030;-84
2022/06/22 14:29:56;;;;;;;0.35;0.35;;;;;;;;;;5006919;28;20520;-83
2022/06/22 14:32:27;;;;;;;0.22;0.22;;;;;;;;;;5018611;28;20025;-84
2022/06/22 14:35:11;;;;;;;0.40;0.40;;;;;;;;;;5014243;28;20084;-84
2022/06/22 14:37:46;;;;;;;2.05;0.73;;;;;;;;;;5006504;28;20112;-84
2022/06/22 14:40:21;;;;;;;0.47;0.20;;;;;;;;;;5010287;28;20030;-85
2022/06/22 14:42:51;;;;;;;1.33;0.50;;;;;;;;;;5002933;28;20036;-88
2022/06/22 14:45:18;;;;;;;0.40;0.40;;;;;;;;;;5011908;28;20018;-86
2022/06/22 14:47:55;;;;;;;0.75;0.70;;;;;;;;;;5025826;28;20022;-85
2022/06/22 14:50:25;;;;;;;0.20;0.20;;;;;;;;;;5013831;28;20026;-84
2022/06/22 14:52:56;;;;;;;0.32;0.17;;;;;;;;;;5001011;28;20049;-85
2022/06/22 14:55:41;;;;;;;0.65;0.65;;;;;;;;;;5006714;28;20113;-86
2022/06/22 14:58:19;;;;;;;0.50;0.50;;;;;;;;;;4997404;28;20041;-88
2022/06/22 15:00:45;;;;;;;3.38;0.60;;;;;;;;;;5031810;28;20346;-86
2022/06/22 15:03:34;;;;;;;1.08;0.45;;;;;;;;;;5016029;28;20036;-88
2022/06/22 15:06:45;;;;;;;0.30;0.30;;;;;;;;;;5017776;28;20018;-87
2022/06/22 15:09:11;;;;;;;0.63;0.50;;;;;;;;;;5015883;28;20065;-87
2022/06/22 15:14:43;;;;;;;0.60;0.40;;;;;;;;;;5016882;28;20379;-85
2022/06/22 15:17:19;;;;;;;0.20;0.20;;;;;;;;;;5000531;28;20034;-87
2022/06/22 15:20:04;;;;;;;0.10;0.10;;;;;;;;;;5016706;28;20087;-86
2022/06/22 15:22:35;;;;;;;0.85;0.57;;;;;;;;;;5016980;28;20036;-86
2022/06/22 15:25:22;;;;;;;0.32;0.10;;;;;;;;;;5016393;28;20079;-88
2022/06/22 15:27:57;;;;;;;0.30;0.30;;;;;;;;;;5017030;28;20482;-86
2022/06/22 15:30:32;;;;;;;6.85;1.58;;;;;;;;;;5005573;28;20026;-85
2022/06/22 15:33:00;;;;;;;0.45;0.45;;;;;;;;;;4995527;28;20030;-84
2022/06/22 15:35:33;;;;;;;0.85;0.40;;;;;;;;;;5022234;28;20105;-86
2022/06/22 15:38:19;;;;;;;0.20;0.20;;;;;;;;;;5020099;28;20032;-86
2022/06/22 15:40:55;;;;;;;0.43;0.30;;;;;;;;;;5013900;28;20042;-87
2022/06/22 15:43:29;;;;;;;0.32;0.32;;;;;;;;;;5035420;28;20048;-86
2022/06/22 15:46:08;;;;;;;0.20;0.20;;;;;;;;;;5031772;28;20060;-88
2022/06/22 15:49:01;;;;;;;1.40;1.15;;;;;;;;;;5012321;28;20048;-85
2022/06/22 15:51:30;;;;;;;2.08;0.63;;;;;;;;;;5012064;28;20069;-86
2022/06/22 15:54:01;;;;;;;0.35;0.35;;;;;;;;;;5037049;28;20036;-86
2022/06/22 15:56:39;;;;;;;3.83;0.35;;;;;;;;;;5011325;28;20034;-87
2022/06/22 15:59:26;;;;;;;0.95;0.75;;;;;;;;;;5033573;28;20049;-86
2022/06/22 16:02:03;;;;;;;0.52;0.50;;;;;;;;;;4994589;28;20088;-86
2022/06/22 16:04:56;;;;;;;1.85;0.95;;;;;;;;;;4999326;28;20045;-85
2022/06/22 16:07:24;;;;;;;0.30;0.30;;;;;;;;;;5013434;28;20021;-82
2022/06/22 16:10:06;;;;;;;0.35;0.22;;;;;;;;;;5017941;28;20038;-85
2022/06/22 16:15:44;;;;;;;0.63;0.45;;;;;;;;;;5024408;28;20096;-85
2022/06/22 16:18:37;;;;;;;0.17;0.17;;;;;;;;;;5001470;28;20041;-85